createdAt,value
2017-12-13T00:00:50.017Z,28.70
2017-12-13T00:03:18.350Z,31.50
2017-12-13T00:05:46.699Z,28.90
2017-12-13T00:08:15.020Z,29.77
2017-12-13T00:10:43.328Z,33.27
2017-12-13T00:13:11.622Z,32.30
2017-12-13T00:15:39.922Z,41.50
2017-12-13T00:18:08.999Z,30.90
2017-12-13T00:20:37.300Z,30.57
2017-12-13T00:23:05.611Z,28.87
2017-12-13T00:25:33.912Z,27.53
2017-12-13T00:28:03.050Z,34.90
2017-12-13T00:30:31.362Z,31.13
2017-12-13T00:32:59.668Z,32.97
2017-12-13T00:35:27.994Z,29.47
2017-12-13T00:37:56.303Z,30.30
2017-12-13T00:40:24.613Z,32.87
2017-12-13T00:42:52.929Z,27.73
2017-12-13T00:45:21.225Z,26.43
2017-12-13T00:47:50.310Z,25.57
2017-12-13T00:50:18.614Z,25.87
2017-12-13T00:52:47.700Z,25.87
2017-12-13T00:55:16.813Z,26.90
2017-12-13T00:57:46.065Z,26.87
2017-12-13T01:00:15.218Z,26.47
2017-12-13T01:02:44.310Z,26.23
2017-12-13T01:05:13.394Z,27.50
2017-12-13T01:07:41.736Z,25.73
2017-12-13T01:10:10.042Z,25.87
2017-12-13T01:12:38.348Z,22.77
2017-12-13T01:15:06.670Z,25.10
2017-12-13T01:17:34.974Z,23.17
2017-12-13T01:20:03.327Z,24.33
2017-12-13T01:22:31.640Z,29.17
2017-12-13T01:25:00.016Z,24.77
2017-12-13T01:27:28.307Z,27.77
2017-12-13T01:29:56.669Z,24.47
2017-12-13T01:32:24.980Z,23.53
2017-12-13T01:34:53.288Z,23.80
2017-12-13T01:37:22.378Z,23.93
2017-12-13T01:39:50.712Z,24.07
2017-12-13T01:42:19.035Z,24.53
2017-12-13T01:44:47.356Z,22.00
2017-12-13T01:47:15.668Z,25.87
2017-12-13T01:49:43.971Z,27.13
2017-12-13T01:52:12.933Z,23.37
2017-12-13T01:54:41.288Z,22.10
2017-12-13T01:57:10.355Z,22.47
2017-12-13T01:59:38.678Z,24.40
2017-12-13T02:02:06.985Z,26.00
2017-12-13T02:04:35.317Z,24.93
2017-12-13T02:07:04.387Z,24.33
2017-12-13T02:09:33.457Z,27.13
2017-12-13T02:12:01.786Z,23.83
2017-12-13T02:14:30.106Z,21.40
2017-12-13T02:16:58.426Z,19.93
2017-12-13T02:19:26.725Z,21.10
2017-12-13T02:21:55.054Z,23.13
2017-12-13T02:24:23.381Z,26.13
2017-12-13T02:26:51.706Z,20.13
2017-12-13T02:29:20.796Z,19.90
2017-12-13T02:31:49.924Z,21.47
2017-12-13T02:34:18.225Z,22.03
2017-12-13T02:36:46.556Z,24.13
2017-12-13T02:39:15.732Z,20.10
2017-12-13T02:41:44.057Z,20.70
2017-12-13T02:44:12.377Z,20.27
2017-12-13T02:46:40.701Z,21.50
2017-12-13T02:49:09.814Z,20.03
2017-12-13T02:51:38.919Z,21.73
2017-12-13T02:54:07.247Z,21.97
2017-12-13T02:56:36.337Z,26.30
2017-12-13T02:59:04.651Z,19.47
2017-12-13T03:01:33.061Z,23.27
2017-12-13T03:04:02.145Z,20.53
2017-12-13T03:06:31.212Z,20.53
2017-12-13T03:08:59.537Z,21.20
2017-12-13T03:11:27.863Z,17.93
2017-12-13T03:13:56.174Z,19.47
2017-12-13T03:16:24.539Z,23.33
2017-12-13T03:18:52.857Z,21.07
2017-12-13T03:21:21.979Z,18.03
2017-12-13T03:23:50.286Z,26.40
2017-12-13T03:26:18.594Z,21.40
2017-12-13T03:28:46.907Z,18.73
2017-12-13T03:31:15.982Z,22.57
2017-12-13T03:33:44.311Z,18.00
2017-12-13T03:36:12.625Z,20.80
2017-12-13T03:38:40.933Z,21.60
2017-12-13T03:41:09.261Z,22.87
2017-12-13T03:43:37.609Z,22.43
2017-12-13T03:46:06.700Z,22.77
2017-12-13T03:48:35.032Z,21.10
2017-12-13T03:51:03.410Z,23.33
2017-12-13T03:53:31.728Z,22.20
2017-12-13T03:56:00.075Z,24.40
2017-12-13T03:58:28.375Z,24.30
2017-12-13T04:00:56.675Z,23.00
2017-12-13T04:03:25.003Z,26.00
2017-12-13T04:05:53.323Z,23.53
2017-12-13T04:08:21.612Z,24.00
2017-12-13T04:10:49.929Z,26.23
2017-12-13T04:13:19.029Z,24.83
2017-12-13T04:15:48.097Z,26.97
2017-12-13T04:18:16.409Z,27.47
2017-12-13T04:20:45.487Z,30.80
2017-12-13T04:23:13.827Z,27.23
2017-12-13T04:25:42.125Z,29.20
2017-12-13T04:28:10.426Z,33.03
2017-12-13T04:30:38.739Z,31.97
2017-12-13T04:33:07.832Z,26.33
2017-12-13T04:35:36.915Z,25.57
2017-12-13T04:38:05.247Z,31.03
2017-12-13T04:40:33.543Z,25.20
2017-12-13T04:43:01.867Z,30.67
2017-12-13T04:45:30.177Z,32.00
2017-12-13T04:47:59.242Z,26.83
2017-12-13T04:50:27.567Z,28.30
2017-12-13T04:52:55.873Z,27.07
2017-12-13T04:55:24.172Z,26.80
2017-12-13T04:57:52.529Z,29.90
2017-12-13T05:00:20.829Z,27.77
2017-12-13T05:02:49.139Z,28.30
2017-12-13T05:05:17.462Z,27.67
2017-12-13T05:07:45.765Z,26.67
2017-12-13T05:10:14.089Z,26.50
2017-12-13T05:12:42.411Z,25.00
2017-12-13T05:15:10.762Z,24.83
2017-12-13T05:17:39.838Z,22.20
2017-12-13T05:20:08.147Z,24.40
2017-12-13T05:22:37.225Z,24.80
2017-12-13T05:25:05.529Z,27.57
2017-12-13T05:27:34.603Z,26.00
2017-12-13T05:30:02.931Z,25.40
2017-12-13T05:32:31.251Z,27.80
2017-12-13T05:34:59.559Z,24.27
2017-12-13T05:37:28.643Z,24.77
2017-12-13T05:39:56.945Z,23.23
2017-12-13T05:42:26.046Z,28.10
2017-12-13T05:44:55.133Z,29.40
2017-12-13T05:47:23.455Z,24.83
2017-12-13T05:49:51.753Z,27.40
2017-12-13T05:52:20.068Z,21.70
2017-12-13T05:54:48.399Z,30.13
2017-12-13T05:57:16.689Z,25.10
2017-12-13T05:59:45.006Z,24.13
2017-12-13T06:02:13.325Z,28.10
2017-12-13T06:04:42.392Z,32.83
2017-12-13T06:07:10.717Z,28.43
2017-12-13T06:09:39.043Z,29.23
2017-12-13T06:12:07.373Z,31.50
2017-12-13T06:14:35.665Z,27.27
2017-12-13T06:17:03.995Z,33.33
2017-12-13T06:19:32.301Z,29.80
2017-12-13T06:22:00.618Z,30.20
2017-12-13T06:24:28.915Z,28.87
2017-12-13T06:26:57.227Z,33.07
2017-12-13T06:29:25.542Z,30.37
2017-12-13T06:31:54.611Z,31.13
2017-12-13T06:34:22.943Z,30.67
2017-12-13T06:36:51.235Z,31.40
2017-12-13T06:39:19.547Z,36.00
2017-12-13T06:41:47.853Z,34.23
2017-12-13T06:44:16.161Z,25.10
2017-12-13T06:46:44.470Z,25.73
2017-12-13T06:49:12.780Z,28.53
2017-12-13T06:51:41.081Z,38.50
2017-12-13T06:54:10.154Z,33.13
2017-12-13T06:56:38.461Z,33.03
2017-12-13T06:59:07.525Z,28.97
2017-12-13T07:01:35.841Z,27.97
2017-12-13T07:04:04.934Z,26.57
2017-12-13T07:06:34.009Z,26.27
2017-12-13T07:09:02.373Z,25.13
2017-12-13T07:11:30.664Z,24.57
2017-12-13T07:13:58.990Z,34.57
2017-12-13T07:16:28.056Z,29.33
2017-12-13T07:18:56.624Z,25.63
2017-12-13T07:21:24.929Z,28.53
2017-12-13T07:23:53.232Z,23.90
2017-12-13T07:26:22.310Z,25.83
2017-12-13T07:28:51.084Z,26.27
2017-12-13T07:31:20.169Z,28.23
2017-12-13T07:33:48.528Z,23.63
2017-12-13T07:36:16.845Z,25.87
2017-12-13T07:38:45.145Z,24.57
2017-12-13T07:41:13.454Z,23.47
2017-12-13T07:43:42.567Z,25.80
2017-12-13T07:46:10.888Z,25.90
2017-12-13T07:48:39.184Z,28.83
2017-12-13T07:51:07.491Z,26.53
2017-12-13T07:53:35.798Z,24.00
2017-12-13T07:56:04.101Z,26.23
2017-12-13T07:58:32.410Z,26.10
2017-12-13T08:01:00.720Z,28.00
2017-12-13T08:03:29.780Z,24.30
2017-12-13T08:05:58.081Z,33.17
2017-12-13T08:08:26.420Z,24.00
2017-12-13T08:10:54.753Z,25.57
2017-12-13T08:13:23.860Z,25.37
2017-12-13T08:15:52.971Z,21.77
2017-12-13T08:18:22.044Z,22.27
2017-12-13T08:20:51.086Z,18.90
2017-12-13T08:23:19.406Z,23.20
2017-12-13T08:25:47.710Z,24.13
2017-12-13T08:28:16.015Z,26.10
2017-12-13T08:30:45.098Z,25.80
2017-12-13T08:33:13.566Z,21.83
2017-12-13T08:35:41.866Z,24.07
2017-12-13T08:38:10.171Z,28.43
2017-12-13T08:40:38.476Z,23.70
2017-12-13T08:43:06.786Z,24.13
2017-12-13T08:45:35.100Z,20.27
2017-12-13T08:48:04.348Z,22.07
2017-12-13T08:50:32.667Z,24.83
2017-12-13T08:53:00.984Z,26.43
2017-12-13T08:55:30.067Z,27.80
2017-12-13T08:57:59.159Z,26.47
2017-12-13T09:00:27.468Z,24.67
2017-12-13T09:02:55.790Z,27.77
2017-12-13T09:05:24.117Z,27.27
2017-12-13T09:07:53.188Z,34.80
2017-12-13T09:10:21.515Z,27.80
2017-12-13T09:12:49.835Z,29.00
2017-12-13T09:15:18.146Z,24.90
2017-12-13T09:17:46.470Z,26.00
2017-12-13T09:20:14.825Z,25.33
2017-12-13T09:22:43.887Z,37.83
2017-12-13T09:25:13.008Z,26.60
2017-12-13T09:27:41.317Z,28.80
2017-12-13T09:30:09.814Z,36.23
2017-12-13T09:32:38.124Z,26.23
2017-12-13T09:35:06.442Z,29.13
2017-12-13T09:37:35.520Z,26.17
2017-12-13T09:40:03.825Z,27.63
2017-12-13T09:42:32.931Z,23.80
2017-12-13T09:45:01.995Z,22.40
2017-12-13T09:47:30.309Z,24.50
2017-12-13T09:49:59.375Z,24.87
2017-12-13T09:52:27.678Z,29.07
2017-12-13T09:54:55.987Z,25.40
2017-12-13T09:57:25.046Z,27.80
2017-12-13T09:59:53.359Z,26.10
2017-12-13T10:02:22.423Z,48.43
2017-12-13T10:04:50.717Z,22.67
2017-12-13T10:07:19.030Z,23.10
2017-12-13T10:09:47.338Z,19.40
2017-12-13T10:12:15.651Z,18.63
2017-12-13T10:14:43.948Z,17.87
2017-12-13T10:17:12.255Z,19.00
2017-12-13T10:19:40.566Z,20.00
2017-12-13T10:22:08.875Z,19.90
2017-12-13T10:24:37.203Z,18.53
2017-12-13T10:27:05.516Z,20.20
2017-12-13T10:29:33.812Z,20.90
2017-12-13T10:32:02.133Z,23.93
2017-12-13T10:34:31.205Z,21.00
2017-12-13T10:37:00.272Z,19.77
2017-12-13T10:39:28.571Z,20.57
2017-12-13T10:41:58.504Z,21.57
2017-12-13T10:44:26.952Z,20.33
2017-12-13T10:46:55.508Z,19.10
2017-12-13T10:49:24.574Z,20.10
2017-12-13T10:51:52.885Z,18.50
2017-12-13T10:54:21.941Z,19.47
2017-12-13T10:56:50.252Z,16.53
2017-12-13T10:59:19.335Z,18.17
2017-12-13T11:01:47.629Z,17.93
2017-12-13T11:04:16.784Z,16.40
2017-12-13T11:06:45.149Z,17.40
2017-12-13T11:09:13.462Z,17.83
2017-12-13T11:11:41.760Z,15.50
2017-12-13T11:14:10.074Z,16.23
2017-12-13T11:16:39.166Z,17.47
2017-12-13T11:19:08.232Z,14.57
2017-12-13T11:21:36.547Z,14.70
2017-12-13T11:24:05.665Z,14.10
2017-12-13T11:26:33.958Z,14.77
2017-12-13T11:29:02.651Z,14.80
2017-12-13T11:31:30.977Z,14.43
2017-12-13T11:33:59.269Z,16.47
2017-12-13T11:36:27.580Z,15.70
2017-12-13T11:38:55.924Z,14.90
2017-12-13T11:41:24.238Z,15.83
2017-12-13T11:43:53.308Z,18.17
2017-12-13T11:46:21.609Z,17.43
2017-12-13T11:48:50.684Z,16.73
2017-12-13T11:51:19.006Z,18.07
2017-12-13T11:53:47.336Z,19.13
2017-12-13T11:56:15.645Z,17.23
2017-12-13T11:58:44.734Z,17.03
2017-12-13T12:01:13.032Z,19.60
2017-12-13T12:03:42.086Z,26.90
2017-12-13T12:06:11.232Z,20.83
2017-12-13T12:08:40.302Z,21.20
2017-12-13T12:11:08.626Z,25.00
2017-12-13T12:13:37.421Z,22.80
2017-12-13T12:16:05.733Z,26.00
2017-12-13T12:18:34.285Z,29.60
2017-12-13T12:21:03.404Z,25.53
2017-12-13T12:23:32.456Z,32.13
2017-12-13T12:26:00.765Z,30.57
2017-12-13T12:28:29.830Z,33.20
2017-12-13T12:30:58.122Z,36.90
2017-12-13T12:33:26.448Z,33.13
2017-12-13T12:35:54.744Z,35.63
2017-12-13T12:38:23.042Z,32.43
2017-12-13T12:40:51.372Z,35.20
2017-12-13T12:43:20.444Z,38.87
2017-12-13T12:45:48.750Z,30.97
2017-12-13T12:48:17.814Z,31.10
2017-12-13T12:50:46.118Z,27.60
2017-12-13T12:53:15.205Z,27.50
2017-12-13T12:55:43.522Z,34.90
2017-12-13T12:58:11.842Z,29.83
2017-12-13T13:00:40.140Z,31.07
2017-12-13T13:03:08.446Z,32.97
2017-12-13T13:05:37.502Z,31.07
2017-12-13T13:08:05.795Z,27.67
2017-12-13T13:10:34.112Z,25.17
2017-12-13T13:13:03.234Z,23.43
2017-12-13T13:15:31.518Z,34.13
2017-12-13T13:17:59.805Z,32.70
2017-12-13T13:20:28.439Z,23.03
2017-12-13T13:22:56.723Z,23.93
2017-12-13T13:25:25.064Z,29.30
2017-12-13T13:27:53.375Z,25.67
2017-12-13T13:30:21.696Z,28.93
2017-12-13T13:32:50.857Z,22.93
2017-12-13T13:35:19.106Z,21.83
2017-12-13T13:37:47.409Z,21.40
2017-12-13T13:40:15.779Z,21.10
2017-12-13T13:42:44.089Z,19.93
2017-12-13T13:45:12.457Z,24.83
2017-12-13T13:47:40.805Z,17.43
2017-12-13T13:50:09.099Z,27.37
2017-12-13T13:52:37.407Z,19.33
2017-12-13T13:55:05.724Z,25.63
2017-12-13T13:57:35.535Z,23.57
2017-12-13T14:00:04.584Z,18.03
2017-12-13T14:02:32.873Z,27.13
2017-12-13T14:05:01.212Z,18.90
2017-12-13T14:07:29.562Z,20.23
2017-12-13T14:09:57.874Z,24.53
2017-12-13T14:12:26.922Z,16.50
2017-12-13T14:14:55.216Z,22.80
2017-12-13T14:17:23.512Z,25.67
2017-12-13T14:19:51.819Z,21.40
2017-12-13T14:22:20.112Z,13.33
2017-12-13T14:24:48.420Z,23.00
2017-12-13T14:27:16.745Z,18.63
2017-12-13T14:29:45.833Z,19.90
2017-12-13T14:32:14.919Z,20.07
2017-12-13T14:34:43.246Z,14.77
2017-12-13T14:37:11.545Z,25.77
2017-12-13T14:39:39.867Z,21.43
2017-12-13T14:42:08.169Z,25.20
2017-12-13T14:44:37.301Z,20.13
2017-12-13T14:47:05.687Z,20.70
2017-12-13T14:49:33.993Z,25.27
2017-12-13T14:52:02.323Z,25.00
2017-12-13T14:54:31.377Z,19.70
2017-12-13T14:56:59.679Z,26.70
2017-12-13T14:59:27.978Z,17.70
2017-12-13T15:01:57.062Z,21.90
2017-12-13T15:04:25.365Z,19.80
2017-12-13T15:06:54.449Z,26.80
2017-12-13T15:09:22.755Z,21.20
2017-12-13T15:11:51.811Z,26.60
2017-12-13T15:14:20.108Z,25.60
2017-12-13T15:16:48.430Z,26.47
2017-12-13T15:19:16.720Z,19.73
2017-12-13T15:21:45.633Z,27.27
2017-12-13T15:24:13.960Z,23.97
2017-12-13T15:26:43.096Z,25.10
2017-12-13T15:29:11.395Z,15.40
2017-12-13T15:31:39.695Z,22.83
2017-12-13T15:34:07.997Z,20.47
2017-12-13T15:36:36.293Z,26.43
2017-12-13T15:39:05.347Z,17.30
2017-12-13T15:41:33.641Z,23.50
2017-12-13T15:44:01.963Z,15.80
2017-12-13T15:46:31.043Z,26.03
2017-12-13T15:48:59.364Z,26.43
2017-12-13T15:51:27.681Z,26.57
2017-12-13T15:53:56.009Z,29.77
2017-12-13T15:56:24.303Z,26.77
2017-12-13T15:58:52.616Z,34.07
2017-12-13T16:01:20.921Z,25.03
2017-12-13T16:03:49.237Z,27.70
2017-12-13T16:06:17.530Z,22.40
2017-12-13T16:08:45.835Z,26.10
2017-12-13T16:11:14.138Z,23.67
2017-12-13T16:13:42.442Z,21.60
2017-12-13T16:16:11.557Z,25.30
2017-12-13T16:18:39.872Z,24.00
2017-12-13T16:21:08.175Z,24.10
2017-12-13T16:23:36.492Z,20.90
2017-12-13T16:26:05.600Z,29.30
2017-12-13T16:28:35.315Z,24.97
2017-12-13T16:31:04.431Z,27.00
2017-12-13T16:33:32.739Z,32.60
2017-12-13T16:36:01.068Z,21.70
2017-12-13T16:38:30.124Z,22.63
2017-12-13T16:40:58.443Z,23.27
2017-12-13T16:43:28.192Z,24.27
2017-12-13T16:45:56.914Z,21.40
2017-12-13T16:48:28.283Z,28.67
2017-12-13T16:50:58.218Z,19.67
2017-12-13T16:53:30.843Z,22.03
2017-12-13T16:55:59.764Z,26.80
2017-12-13T16:58:29.795Z,25.30
2017-12-13T17:00:58.919Z,19.50
2017-12-13T17:03:29.155Z,21.17
2017-12-13T17:05:59.124Z,24.43
2017-12-13T17:08:28.783Z,29.50
2017-12-13T17:10:57.953Z,30.13
2017-12-13T17:13:27.481Z,30.50
2017-12-13T17:15:58.635Z,38.87
2017-12-13T17:18:31.933Z,29.70
2017-12-13T17:21:01.710Z,32.93
2017-12-13T17:23:31.864Z,31.50
2017-12-13T17:26:01.684Z,36.70
2017-12-13T17:28:32.741Z,35.97
2017-12-13T17:31:02.494Z,36.50
2017-12-13T17:33:31.539Z,41.97
2017-12-13T17:36:04.311Z,33.90
2017-12-13T17:38:41.772Z,36.00
2017-12-13T17:41:12.482Z,38.53
2017-12-13T17:43:41.753Z,38.50
2017-12-13T17:48:57.148Z,41.20
2017-12-13T17:51:26.849Z,38.20
2017-12-13T17:53:55.373Z,41.53
2017-12-13T17:56:24.609Z,48.87
2017-12-13T17:58:54.110Z,42.13
2017-12-13T18:01:22.635Z,35.37
2017-12-13T18:03:51.079Z,35.53
2017-12-13T18:06:20.533Z,38.30
2017-12-13T18:08:48.910Z,41.73
2017-12-13T18:11:18.041Z,43.20
2017-12-13T18:13:46.408Z,37.33
2017-12-13T18:16:17.583Z,42.20
2017-12-13T18:18:49.951Z,36.13
2017-12-13T18:21:18.981Z,40.20
2017-12-13T18:23:47.296Z,42.80
2017-12-13T18:26:16.409Z,45.80
2017-12-13T18:28:49.918Z,43.97
2017-12-13T18:31:23.892Z,48.07
2017-12-13T18:33:53.250Z,41.33
2017-12-13T18:36:21.539Z,41.03
2017-12-13T18:38:52.423Z,43.60
2017-12-13T18:41:24.480Z,36.40
2017-12-13T18:43:57.570Z,49.63
2017-12-13T18:46:26.457Z,46.10
2017-12-13T18:48:55.818Z,45.97
2017-12-13T18:51:26.401Z,44.50
2017-12-13T18:53:56.011Z,47.20
2017-12-13T18:56:26.226Z,42.87
2017-12-13T18:58:57.478Z,48.77
2017-12-13T19:01:25.973Z,43.67
2017-12-13T19:03:54.304Z,47.93
2017-12-13T19:06:22.597Z,41.10
2017-12-13T19:08:50.955Z,44.40
2017-12-13T19:11:20.065Z,34.87
2017-12-13T19:13:48.380Z,32.00
2017-12-13T19:16:16.699Z,35.43
2017-12-13T19:18:45.790Z,38.17
2017-12-13T19:21:14.100Z,45.43
2017-12-13T19:23:43.164Z,33.27
2017-12-13T19:26:11.471Z,18.63
2017-12-13T19:28:40.526Z,6.47
2017-12-13T19:31:08.850Z,5.03
2017-12-13T19:33:37.154Z,2.07
2017-12-13T19:36:05.471Z,3.03
2017-12-13T19:38:33.906Z,3.13
2017-12-13T19:41:02.973Z,3.23
2017-12-13T19:43:32.071Z,2.37
2017-12-13T19:46:00.400Z,4.23
2017-12-13T19:48:28.806Z,4.90
2017-12-13T19:50:57.787Z,5.07
2017-12-13T19:53:26.092Z,4.43
2017-12-13T19:55:54.380Z,3.33
2017-12-13T19:58:22.706Z,5.77
2017-12-13T20:00:51.767Z,9.17
2017-12-13T20:03:20.080Z,5.47
2017-12-13T20:05:49.141Z,8.50
2017-12-13T20:08:17.444Z,9.27
2017-12-13T20:10:45.755Z,12.07
2017-12-13T20:13:14.074Z,5.50
2017-12-13T20:15:42.371Z,7.57
2017-12-13T20:18:10.683Z,8.87
2017-12-13T20:20:39.737Z,7.50
2017-12-13T20:23:08.061Z,9.87
2017-12-13T20:25:37.146Z,7.87
2017-12-13T20:28:05.440Z,7.37
2017-12-13T20:30:34.550Z,11.10
2017-12-13T20:33:03.932Z,13.83
2017-12-13T20:35:32.251Z,10.73
2017-12-13T20:38:00.538Z,12.80
2017-12-13T20:40:28.832Z,13.50
2017-12-13T20:42:57.128Z,5.97
2017-12-13T20:45:26.189Z,9.20
2017-12-13T20:47:54.512Z,16.87
2017-12-13T20:50:23.621Z,27.17
2017-12-13T20:52:51.950Z,10.07
2017-12-13T20:55:21.039Z,8.30
2017-12-13T20:57:50.154Z,10.77
2017-12-13T21:00:18.460Z,10.67
2017-12-13T21:02:46.740Z,9.63
2017-12-13T21:05:15.033Z,14.50
2017-12-13T21:07:43.315Z,7.20
2017-12-13T21:10:11.685Z,11.17
2017-12-13T21:12:39.991Z,10.70
2017-12-13T21:15:08.294Z,10.90
2017-12-13T21:17:36.643Z,8.03
2017-12-13T21:20:05.116Z,10.53
2017-12-13T21:22:33.423Z,16.47
2017-12-13T21:25:02.465Z,12.03
2017-12-13T21:27:31.680Z,18.93
2017-12-13T21:29:59.991Z,15.40
2017-12-13T21:32:28.301Z,16.20
2017-12-13T21:34:56.604Z,10.63
2017-12-13T21:37:25.661Z,11.17
2017-12-13T21:39:53.965Z,19.00
2017-12-13T21:42:22.260Z,12.73
2017-12-13T21:44:51.358Z,22.70
2017-12-13T21:47:20.436Z,19.77
2017-12-13T21:49:48.749Z,14.40
2017-12-13T21:52:17.806Z,15.30
2017-12-13T21:54:46.113Z,12.07
2017-12-13T21:57:14.395Z,11.33
2017-12-13T21:59:42.692Z,11.67
2017-12-13T22:02:11.751Z,12.67
2017-12-13T22:04:40.820Z,11.30
2017-12-13T22:07:09.131Z,12.87
2017-12-13T22:09:37.420Z,9.83
2017-12-13T22:12:05.712Z,13.83
2017-12-13T22:14:34.023Z,9.90
2017-12-13T22:17:02.313Z,12.03
2017-12-13T22:19:30.613Z,11.20
2017-12-13T22:21:58.925Z,12.80
2017-12-13T22:24:27.228Z,16.03
2017-12-13T22:26:56.294Z,8.70
2017-12-13T22:29:24.587Z,7.50
2017-12-13T22:31:52.899Z,9.57
2017-12-13T22:34:21.969Z,11.50
2017-12-13T22:36:50.273Z,10.33
2017-12-13T22:39:19.341Z,10.40
2017-12-13T22:41:47.636Z,17.20
2017-12-13T22:44:15.948Z,8.97
2017-12-13T22:46:44.257Z,7.00
2017-12-13T22:49:12.543Z,10.50
2017-12-13T22:51:40.843Z,6.30
2017-12-13T22:54:09.679Z,14.37
2017-12-13T22:56:38.784Z,8.43
2017-12-13T22:59:07.433Z,14.37
2017-12-13T23:01:35.785Z,11.33
2017-12-13T23:04:05.232Z,8.33
2017-12-13T23:06:34.565Z,10.13
2017-12-13T23:09:03.691Z,10.23
2017-12-13T23:11:39.327Z,8.70
2017-12-13T23:14:07.927Z,10.50
2017-12-13T23:16:36.230Z,10.33
2017-12-13T23:19:04.532Z,9.03
2017-12-13T23:21:32.930Z,8.57
2017-12-13T23:24:01.218Z,12.63
2017-12-13T23:26:30.297Z,10.83
2017-12-13T23:28:58.662Z,12.23
2017-12-13T23:31:26.950Z,14.70
2017-12-13T23:33:55.259Z,9.17
2017-12-13T23:36:23.556Z,10.43
2017-12-13T23:38:52.630Z,8.20
2017-12-13T23:41:20.918Z,9.90
2017-12-13T23:43:50.176Z,7.00
2017-12-13T23:46:18.469Z,10.97
2017-12-13T23:48:46.762Z,8.80
2017-12-13T23:51:15.068Z,10.33
2017-12-13T23:53:43.373Z,8.33
2017-12-13T23:56:11.730Z,14.40
2017-12-13T23:58:40.037Z,8.23
